createdAt,value
2023-03-05T00:01:24.877Z,13.85
2023-03-05T00:03:54.376Z,10.68
2023-03-05T00:06:24.057Z,14.02
2023-03-05T00:08:53.370Z,15.90
2023-03-05T00:11:21.324Z,15.77
2023-03-05T00:13:51.925Z,16.67
2023-03-05T00:16:19.974Z,17.95
2023-03-05T00:18:47.118Z,22.63
2023-03-05T00:21:22.980Z,14.85
2023-03-05T00:23:51.133Z,22.80
2023-03-05T00:26:20.596Z,17.38
2023-03-05T00:28:50.600Z,20.60
2023-03-05T00:31:20.503Z,17.35
2023-03-05T00:33:56.990Z,12.63
2023-03-05T00:38:52.794Z,13.68
2023-03-05T00:41:20.253Z,17.60
2023-03-05T00:43:48.386Z,10.70
2023-03-05T00:46:16.007Z,16.35
2023-03-05T00:48:43.119Z,16.48
2023-03-05T00:51:10.492Z,6.93
2023-03-05T00:53:37.537Z,17.95
2023-03-05T00:56:05.447Z,10.57
2023-03-05T00:58:32.778Z,12.85
2023-03-05T01:01:02.547Z,18.05
2023-03-05T01:03:30.878Z,12.57
2023-03-05T01:05:58.067Z,9.65
2023-03-05T01:08:25.873Z,16.70
2023-03-05T01:10:53.379Z,15.35
2023-03-05T01:13:21.337Z,8.27
2023-03-05T01:15:50.844Z,15.30
2023-03-05T01:18:20.383Z,12.63
2023-03-05T01:20:47.870Z,18.08
2023-03-05T01:23:15.583Z,21.48
2023-03-05T01:25:42.793Z,14.93
2023-03-05T01:28:10.471Z,12.18
2023-03-05T01:30:37.768Z,16.48
2023-03-05T01:33:04.698Z,7.70
2023-03-05T01:35:31.660Z,12.68
2023-03-05T01:37:58.606Z,13.73
2023-03-05T01:40:29.159Z,10.23
2023-03-05T01:43:01.554Z,13.13
2023-03-05T01:45:32.741Z,8.68
2023-03-05T01:48:00.364Z,4.72
2023-03-05T01:50:29.128Z,10.90
2023-03-05T01:53:06.096Z,13.82
2023-03-05T01:55:37.320Z,9.68
2023-03-05T01:58:10.650Z,18.70
2023-03-05T02:00:48.607Z,8.65
2023-03-05T02:03:16.189Z,10.52
2023-03-05T02:05:44.564Z,8.43
2023-03-05T02:08:16.037Z,10.10
2023-03-05T02:10:46.854Z,12.30
2023-03-05T02:13:28.308Z,11.05
2023-03-05T02:16:00.288Z,13.60
2023-03-05T02:18:27.904Z,8.82
2023-03-05T02:20:57.870Z,7.10
2023-03-05T02:23:33.954Z,6.65
2023-03-05T02:26:01.020Z,4.22
2023-03-05T02:28:42.991Z,17.23
2023-03-05T02:31:16.850Z,11.30
2023-03-05T02:33:44.084Z,10.88
2023-03-05T02:36:12.109Z,9.10
2023-03-05T02:38:41.451Z,6.50
2023-03-05T02:41:09.715Z,13.45
2023-03-05T02:43:37.269Z,9.55
2023-03-05T02:46:05.610Z,3.83
2023-03-05T02:48:32.806Z,4.65
2023-03-05T02:51:01.382Z,8.68
2023-03-05T02:53:28.587Z,6.53
2023-03-05T02:55:56.338Z,5.68
2023-03-05T02:58:23.710Z,6.43
2023-03-05T03:00:51.083Z,7.80
2023-03-05T03:03:18.292Z,9.02
2023-03-05T03:05:45.663Z,4.28
2023-03-05T03:08:12.523Z,10.68
2023-03-05T03:10:39.458Z,8.80
2023-03-05T03:13:06.519Z,7.60
2023-03-05T03:15:33.535Z,7.97
2023-03-05T03:18:00.870Z,6.97
2023-03-05T03:20:27.810Z,5.45
2023-03-05T03:22:54.964Z,4.68
2023-03-05T03:25:23.100Z,10.38
2023-03-05T03:27:52.464Z,7.07
2023-03-05T03:30:19.502Z,4.50
2023-03-05T03:32:46.552Z,6.78
2023-03-05T03:35:14.178Z,10.10
2023-03-05T03:37:42.385Z,5.85
2023-03-05T03:40:11.736Z,6.43
2023-03-05T03:42:38.833Z,3.47
2023-03-05T03:45:06.774Z,7.95
2023-03-05T03:47:33.662Z,6.70
2023-03-05T03:50:00.601Z,11.38
2023-03-05T03:52:27.653Z,6.68
2023-03-05T03:55:01.151Z,3.92
2023-03-05T03:57:33.375Z,6.65
2023-03-05T04:00:00.659Z,7.90
2023-03-05T04:02:27.853Z,8.43
2023-03-05T04:04:55.015Z,5.75
2023-03-05T04:07:22.009Z,5.43
2023-03-05T04:09:49.482Z,5.25
2023-03-05T04:12:18.254Z,12.43
2023-03-05T04:14:49.522Z,5.05
2023-03-05T04:17:16.915Z,5.93
2023-03-05T04:19:45.351Z,7.22
2023-03-05T04:22:15.688Z,5.53
2023-03-05T04:24:43.101Z,12.27
2023-03-05T04:27:10.393Z,5.00
2023-03-05T04:29:37.985Z,6.43
2023-03-05T04:32:05.493Z,3.75
2023-03-05T04:34:33.143Z,8.32
2023-03-05T04:37:00.302Z,6.60
2023-03-05T04:39:27.427Z,5.18
2023-03-05T04:41:54.385Z,4.18
2023-03-05T04:44:23.325Z,4.50
2023-03-05T04:46:50.609Z,5.97
2023-03-05T04:49:17.593Z,7.90
2023-03-05T04:51:44.670Z,6.07
2023-03-05T04:54:11.628Z,7.00
2023-03-05T04:56:38.694Z,9.43
2023-03-05T04:59:05.775Z,2.33
2023-03-05T05:01:35.286Z,6.50
2023-03-05T05:04:02.365Z,8.15
2023-03-05T05:06:29.347Z,5.45
2023-03-05T05:08:56.381Z,6.53
2023-03-05T05:11:23.516Z,4.35
2023-03-05T05:13:50.722Z,5.50
2023-03-05T05:16:17.823Z,7.95
2023-03-05T05:18:44.863Z,11.05
2023-03-05T05:21:14.075Z,4.65
2023-03-05T05:23:40.966Z,5.93
2023-03-05T05:26:09.337Z,5.43
2023-03-05T05:28:38.429Z,3.10
2023-03-05T05:31:10.293Z,5.75
2023-03-05T05:33:37.492Z,5.63
2023-03-05T05:36:08.136Z,6.53
2023-03-05T05:38:35.398Z,14.27
2023-03-05T05:41:18.348Z,6.20
2023-03-05T05:43:45.672Z,8.75
2023-03-05T05:46:16.864Z,11.10
2023-03-05T05:48:44.868Z,7.47
2023-03-05T05:51:21.368Z,8.20
2023-03-05T05:53:48.750Z,4.63
2023-03-05T05:56:17.446Z,12.25
2023-03-05T05:58:47.345Z,8.18
2023-03-05T06:01:19.493Z,9.77
2023-03-05T06:03:46.812Z,4.97
2023-03-05T06:06:18.734Z,9.98
2023-03-05T06:08:45.974Z,4.07
2023-03-05T06:11:13.498Z,6.20
2023-03-05T06:13:40.490Z,6.32
2023-03-05T06:16:12.365Z,9.00
2023-03-05T06:18:39.744Z,5.80
2023-03-05T06:21:15.750Z,5.15
2023-03-05T06:23:43.822Z,5.88
2023-03-05T06:26:14.563Z,9.07
2023-03-05T06:28:41.642Z,6.28
2023-03-05T06:31:28.866Z,8.13
2023-03-05T06:34:01.254Z,5.85
2023-03-05T06:36:29.216Z,10.07
2023-03-05T06:38:57.594Z,6.53
2023-03-05T06:41:29.150Z,5.50
2023-03-05T06:43:56.965Z,8.05
2023-03-05T06:46:28.356Z,3.70
2023-03-05T06:48:59.098Z,5.20
2023-03-05T06:51:30.008Z,13.52
2023-03-05T06:54:01.727Z,5.30
2023-03-05T06:56:29.167Z,9.73
2023-03-05T06:58:56.109Z,12.73
2023-03-05T07:01:23.729Z,6.70
2023-03-05T07:03:53.709Z,10.43
2023-03-05T07:06:22.739Z,6.03
2023-03-05T07:08:50.387Z,5.28
2023-03-05T07:11:20.207Z,4.70
2023-03-05T07:13:50.829Z,8.02
2023-03-05T07:16:24.888Z,4.93
2023-03-05T07:18:52.797Z,4.57
2023-03-05T07:21:25.862Z,5.38
2023-03-05T07:23:58.417Z,5.65
2023-03-05T07:26:27.270Z,4.68
2023-03-05T07:28:54.971Z,4.95
2023-03-05T07:31:31.004Z,4.68
2023-03-05T07:34:00.444Z,2.60
2023-03-05T07:36:27.576Z,4.13
2023-03-05T07:38:54.672Z,3.83
2023-03-05T07:41:23.401Z,6.97
2023-03-05T07:43:53.135Z,4.43
2023-03-05T07:46:23.715Z,2.72
2023-03-05T07:48:50.860Z,11.10
2023-03-05T07:51:19.957Z,3.80
2023-03-05T07:53:49.710Z,4.57
2023-03-05T07:56:26.705Z,5.68
2023-03-05T07:58:53.662Z,7.90
2023-03-05T08:01:20.907Z,3.80
2023-03-05T08:03:47.967Z,5.68
2023-03-05T08:06:15.038Z,4.28
2023-03-05T08:08:42.072Z,7.93
2023-03-05T08:11:13.549Z,4.43
2023-03-05T08:13:41.356Z,8.32
2023-03-05T08:16:20.737Z,5.72
2023-03-05T08:18:48.772Z,6.95
2023-03-05T08:21:22.207Z,7.57
2023-03-05T08:23:49.558Z,5.30
2023-03-05T08:26:21.946Z,9.23
2023-03-05T08:28:49.054Z,6.07
2023-03-05T08:31:19.451Z,4.45
2023-03-05T08:33:46.757Z,4.90
2023-03-05T08:36:14.160Z,3.13
2023-03-05T08:38:42.053Z,4.35
2023-03-05T08:41:09.317Z,8.40
2023-03-05T08:43:36.873Z,6.50
2023-03-05T08:46:04.719Z,4.85
2023-03-05T08:48:32.631Z,7.03
2023-03-05T08:51:12.742Z,8.98
2023-03-05T08:53:40.311Z,4.18
2023-03-05T08:56:08.170Z,4.20
2023-03-05T08:58:35.376Z,5.63
2023-03-05T09:01:02.270Z,2.40
2023-03-05T09:03:29.426Z,3.60
2023-03-05T09:06:01.686Z,5.40
2023-03-05T09:08:29.315Z,4.00
2023-03-05T09:10:56.684Z,5.93
2023-03-05T09:13:23.783Z,5.30
2023-03-05T09:16:00.746Z,3.63
2023-03-05T09:18:28.128Z,5.18
2023-03-05T09:20:55.700Z,8.70
2023-03-05T09:23:23.501Z,2.92
2023-03-05T09:25:50.727Z,3.15
2023-03-05T09:28:17.766Z,5.43
2023-03-05T09:30:44.916Z,4.18
2023-03-05T09:33:11.966Z,6.40
2023-03-05T09:35:39.034Z,5.78
2023-03-05T09:38:06.121Z,4.35
2023-03-05T09:41:03.475Z,3.35
2023-03-05T09:44:19.060Z,1.40
2023-03-05T09:47:07.532Z,2.55
2023-03-05T09:50:03.992Z,1.88
2023-03-05T09:52:55.223Z,8.80
2023-03-05T09:55:36.562Z,6.28
2023-03-05T09:58:12.024Z,3.78
2023-03-05T10:00:49.612Z,3.22
2023-03-05T10:03:44.361Z,6.47
2023-03-05T10:06:25.534Z,4.43
2023-03-05T10:09:07.986Z,3.53
2023-03-05T10:12:03.840Z,8.63
2023-03-05T10:14:34.858Z,3.95
2023-03-05T10:17:35.758Z,3.28
2023-03-05T10:20:40.241Z,4.70
2023-03-05T10:23:30.830Z,2.83
2023-03-05T10:26:48.294Z,6.40
2023-03-05T10:29:30.110Z,3.10
2023-03-05T10:32:36.757Z,9.57
2023-03-05T10:35:40.881Z,2.28
2023-03-05T10:38:38.968Z,2.05
2023-03-05T10:41:27.936Z,4.47
2023-03-05T10:44:35.316Z,5.85
2023-03-05T10:47:13.145Z,2.72
2023-03-05T10:49:51.020Z,3.85
2023-03-05T10:52:40.455Z,3.42
2023-03-05T10:55:16.839Z,3.85
2023-03-05T10:57:44.741Z,3.63
2023-03-05T11:00:25.093Z,3.92
2023-03-05T11:03:06.749Z,4.70
2023-03-05T11:05:40.566Z,4.78
2023-03-05T11:08:24.065Z,5.32
2023-03-05T11:11:20.079Z,2.60
2023-03-05T11:14:02.223Z,2.97
2023-03-05T11:16:45.667Z,4.30
2023-03-05T11:19:15.305Z,3.70
2023-03-05T11:21:44.227Z,4.70
2023-03-05T11:24:16.900Z,3.05
2023-03-05T11:26:50.799Z,4.82
2023-03-05T11:29:26.272Z,1.52
2023-03-05T11:31:53.984Z,3.47
2023-03-05T11:34:20.985Z,5.30
2023-03-05T11:36:50.887Z,2.53
2023-03-05T11:39:28.280Z,7.60
2023-03-05T11:42:05.160Z,4.40
2023-03-05T11:44:55.739Z,3.83
2023-03-05T11:47:54.148Z,3.05
2023-03-05T11:50:31.160Z,3.20
2023-03-05T11:53:05.057Z,4.72
2023-03-05T11:55:49.296Z,3.38
2023-03-05T11:58:39.896Z,3.35
2023-03-05T12:01:24.182Z,2.15
2023-03-05T12:03:52.224Z,5.28
2023-03-05T12:06:43.679Z,3.70
2023-03-05T12:09:30.746Z,4.93
2023-03-05T12:14:49.212Z,5.33
2023-03-05T12:17:32.861Z,2.95
2023-03-05T12:20:49.001Z,5.35
2023-03-05T12:23:20.851Z,6.18
2023-03-05T12:25:57.745Z,5.60
2023-03-05T12:28:55.341Z,5.25
2023-03-05T12:34:47.469Z,5.80
2023-03-05T12:37:23.582Z,3.53
2023-03-05T12:40:12.230Z,2.70
2023-03-05T12:42:39.020Z,6.40
2023-03-05T12:45:11.775Z,5.03
2023-03-05T12:47:46.927Z,3.83
2023-03-05T12:50:29.214Z,4.35
2023-03-05T12:53:18.519Z,2.15
2023-03-05T12:55:45.907Z,2.83
2023-03-05T12:58:34.179Z,3.88
2023-03-05T13:01:39.412Z,2.50
2023-03-05T13:04:16.071Z,3.50
2023-03-05T13:06:43.290Z,4.82
2023-03-05T13:09:20.995Z,5.07
2023-03-05T13:11:54.331Z,2.78
2023-03-05T13:14:40.259Z,2.30
2023-03-05T13:17:30.029Z,3.00
2023-03-05T13:19:59.275Z,3.67
2023-03-05T13:22:26.618Z,3.45
2023-03-05T13:25:20.355Z,5.45
2023-03-05T13:27:47.246Z,4.43
2023-03-05T13:30:28.028Z,3.83
2023-03-05T13:33:04.791Z,4.80
2023-03-05T13:35:32.880Z,3.92
2023-03-05T13:38:00.816Z,2.65
2023-03-05T13:40:32.142Z,5.80
2023-03-05T13:43:19.722Z,3.25
2023-03-05T13:45:56.433Z,4.90
2023-03-05T13:48:23.507Z,5.15
2023-03-05T13:50:58.319Z,3.63
2023-03-05T13:53:29.746Z,2.97
2023-03-05T13:56:00.838Z,3.50
2023-03-05T13:58:54.950Z,3.90
2023-03-05T14:01:42.576Z,8.02
2023-03-05T14:04:15.716Z,3.75
2023-03-05T14:06:55.037Z,5.65
2023-03-05T14:09:42.201Z,3.65
2023-03-05T14:12:27.350Z,1.75
2023-03-05T14:14:54.465Z,3.25
2023-03-05T14:17:23.851Z,3.85
2023-03-05T14:19:51.016Z,2.75
2023-03-05T14:22:37.194Z,4.28
2023-03-05T14:25:06.489Z,3.63
2023-03-05T14:27:37.249Z,3.33
2023-03-05T14:30:22.238Z,4.97
2023-03-05T14:32:51.800Z,3.45
2023-03-05T14:35:23.310Z,3.63
2023-03-05T14:37:52.506Z,1.80
2023-03-05T14:40:23.629Z,2.25
2023-03-05T14:43:05.326Z,3.03
2023-03-05T14:45:37.342Z,4.20
2023-03-05T14:48:07.036Z,3.08
2023-03-05T14:50:43.618Z,3.03
2023-03-05T14:53:17.919Z,4.82
2023-03-05T14:55:50.238Z,3.33
2023-03-05T14:58:25.825Z,2.28
2023-03-05T15:00:54.119Z,3.50
2023-03-05T15:03:22.553Z,2.97
2023-03-05T15:05:54.550Z,3.42
2023-03-05T15:08:28.910Z,5.40
2023-03-05T15:10:56.212Z,4.93
2023-03-05T15:13:23.268Z,6.63
2023-03-05T15:15:51.592Z,4.20
2023-03-05T15:18:24.663Z,3.28
2023-03-05T15:20:53.429Z,2.63
2023-03-05T15:23:21.209Z,3.40
2023-03-05T15:25:49.986Z,2.58
2023-03-05T15:28:18.674Z,3.05
2023-03-05T15:30:48.566Z,2.45
2023-03-05T15:33:18.256Z,3.22
2023-03-05T15:35:45.759Z,6.25
2023-03-05T15:38:12.908Z,1.42
2023-03-05T15:40:40.076Z,1.88
2023-03-05T15:43:06.974Z,5.05
2023-03-05T15:45:33.910Z,3.05
2023-03-05T15:48:01.391Z,2.15
2023-03-05T15:50:28.438Z,2.42
2023-03-05T15:52:55.294Z,3.70
2023-03-05T15:55:22.509Z,5.97
2023-03-05T15:57:54.198Z,2.85
2023-03-05T16:00:28.232Z,3.85
2023-03-05T16:02:55.413Z,1.98
2023-03-05T16:05:23.186Z,2.55
2023-03-05T16:07:52.475Z,5.03
2023-03-05T16:10:26.005Z,0.98
2023-03-05T16:12:59.354Z,2.10
2023-03-05T16:15:26.569Z,4.40
2023-03-05T16:17:57.189Z,1.98
2023-03-05T16:20:24.441Z,5.13
2023-03-05T16:22:51.587Z,3.67
2023-03-05T16:25:18.740Z,2.72
2023-03-05T16:27:45.874Z,16.65
2023-03-05T16:30:15.378Z,3.53
2023-03-05T16:32:43.509Z,2.60
2023-03-05T16:35:12.382Z,3.03
2023-03-05T16:37:41.042Z,4.05
2023-03-05T16:40:10.970Z,3.80
2023-03-05T16:42:37.986Z,2.00
2023-03-05T16:45:07.815Z,3.75
2023-03-05T16:47:35.365Z,3.58
2023-03-05T16:50:02.367Z,6.10
2023-03-05T16:52:29.916Z,5.20
2023-03-05T16:54:57.106Z,3.67
2023-03-05T16:57:25.602Z,5.82
2023-03-05T16:59:54.010Z,3.42
2023-03-05T17:02:21.011Z,4.10
2023-03-05T17:04:49.377Z,4.82
2023-03-05T17:07:17.080Z,4.22
2023-03-05T17:09:44.394Z,3.88
2023-03-05T17:12:11.592Z,6.55
2023-03-05T17:14:38.596Z,2.85
2023-03-05T17:17:05.501Z,2.35
2023-03-05T17:19:32.401Z,5.78
2023-03-05T17:21:59.427Z,6.32
2023-03-05T17:24:26.548Z,5.82
2023-03-05T17:26:53.636Z,3.08
2023-03-05T17:29:22.380Z,8.88
2023-03-05T17:31:53.290Z,4.78
2023-03-05T17:34:33.313Z,4.55
2023-03-05T17:37:01.376Z,3.95
2023-03-05T17:39:28.256Z,5.15
2023-03-05T17:41:55.528Z,5.47
2023-03-05T17:44:22.492Z,4.97
2023-03-05T17:46:49.336Z,7.00
2023-03-05T17:49:16.403Z,4.97
2023-03-05T17:51:43.572Z,6.13
2023-03-05T17:54:10.538Z,2.38
2023-03-05T17:56:37.441Z,5.05
2023-03-05T17:59:05.594Z,3.97
2023-03-05T18:01:35.012Z,5.78
2023-03-05T18:04:02.536Z,3.13
2023-03-05T18:06:30.172Z,3.58
2023-03-05T18:08:57.506Z,9.77
2023-03-05T18:11:24.550Z,2.88
2023-03-05T18:13:51.484Z,5.45
2023-03-05T18:16:18.665Z,4.50
2023-03-05T18:18:45.742Z,8.13
2023-03-05T18:21:12.890Z,3.55
2023-03-05T18:23:39.811Z,7.47
2023-03-05T18:26:07.003Z,4.68
2023-03-05T18:28:34.083Z,9.35
2023-03-05T18:31:01.447Z,3.30
2023-03-05T18:33:28.410Z,5.90
2023-03-05T18:35:55.585Z,4.97
2023-03-05T18:38:26.026Z,3.45
2023-03-05T18:40:56.388Z,6.13
2023-03-05T18:43:24.929Z,7.00
2023-03-05T18:45:54.932Z,6.55
2023-03-05T18:48:22.896Z,3.95
2023-03-05T18:50:54.394Z,7.47
2023-03-05T18:53:22.258Z,4.45
2023-03-05T18:55:51.351Z,3.72
2023-03-05T18:58:18.863Z,7.22
2023-03-05T19:00:47.058Z,4.25
2023-03-05T19:03:15.693Z,5.35
2023-03-05T19:05:42.901Z,6.88
2023-03-05T19:08:10.640Z,6.13
2023-03-05T19:10:37.670Z,3.15
2023-03-05T19:13:43.419Z,10.30
2023-03-05T19:16:26.800Z,6.60
2023-03-05T19:19:24.452Z,3.08
2023-03-05T19:22:00.688Z,4.50
2023-03-05T19:24:30.739Z,10.98
2023-03-05T19:27:00.978Z,6.57
2023-03-05T19:29:34.310Z,6.65
2023-03-05T19:32:01.619Z,6.90
2023-03-05T19:34:28.660Z,4.22
2023-03-05T19:36:55.689Z,5.15
2023-03-05T19:39:22.798Z,4.03
2023-03-05T19:41:49.799Z,3.85
2023-03-05T19:44:18.535Z,4.38
2023-03-05T19:46:48.092Z,2.75
2023-03-05T19:49:17.254Z,8.63
2023-03-05T19:51:45.963Z,4.13
2023-03-05T19:54:16.336Z,4.55
2023-03-05T19:56:45.165Z,5.22
2023-03-05T19:59:16.512Z,7.75
2023-03-05T20:01:45.319Z,6.68
2023-03-05T20:04:20.999Z,6.43
2023-03-05T20:06:48.311Z,6.45
2023-03-05T20:09:16.190Z,6.70
2023-03-05T20:11:43.588Z,7.35
2023-03-05T20:14:12.951Z,3.05
2023-03-05T20:16:41.345Z,3.95
2023-03-05T20:19:11.789Z,10.15
2023-03-05T20:21:42.077Z,6.68
2023-03-05T20:24:16.933Z,7.88
2023-03-05T20:26:45.859Z,7.90
2023-03-05T20:29:17.484Z,6.15
2023-03-05T20:31:45.641Z,7.03
2023-03-05T20:34:17.069Z,8.25
2023-03-05T20:36:44.436Z,6.82
2023-03-05T20:39:12.392Z,8.57
2023-03-05T20:41:40.582Z,7.55
2023-03-05T20:44:08.539Z,9.93
2023-03-05T20:47:25.602Z,9.00
2023-03-05T20:50:05.060Z,4.65
2023-03-05T20:52:32.303Z,6.30
2023-03-05T20:54:59.401Z,7.25
2023-03-05T20:57:26.416Z,6.90
2023-03-05T20:59:53.860Z,7.60
2023-03-05T21:02:20.915Z,8.10
2023-03-05T21:04:47.872Z,8.88
2023-03-05T21:07:14.936Z,5.10
2023-03-05T21:09:42.064Z,3.80
2023-03-05T21:12:09.220Z,6.80
2023-03-05T21:14:40.735Z,6.57
2023-03-05T21:17:09.099Z,8.00
2023-03-05T21:19:38.972Z,5.72
2023-03-05T21:22:06.099Z,10.73
2023-03-05T21:25:20.576Z,6.00
2023-03-05T21:28:12.800Z,6.88
2023-03-05T21:30:47.214Z,7.65
2023-03-05T21:33:25.118Z,6.28
2023-03-05T21:35:54.335Z,10.10
2023-03-05T21:38:23.328Z,8.50
2023-03-05T21:40:53.618Z,10.63
2023-03-05T21:43:23.537Z,12.60
2023-03-05T21:45:53.482Z,7.70
2023-03-05T21:48:22.178Z,6.93
2023-03-05T21:50:49.864Z,8.30
2023-03-05T21:53:19.140Z,3.97
2023-03-05T21:56:26.312Z,4.88
2023-03-05T21:58:53.959Z,8.07
2023-03-05T22:01:21.840Z,4.70
2023-03-05T22:03:49.772Z,9.75
2023-03-05T22:06:19.215Z,6.07
2023-03-05T22:08:47.207Z,7.63
2023-03-05T22:11:17.483Z,7.93
2023-03-05T22:13:44.615Z,6.88
2023-03-05T22:16:14.247Z,5.68
2023-03-05T22:18:41.325Z,5.45
2023-03-05T22:21:26.821Z,5.13
2023-03-05T22:23:58.529Z,6.45
2023-03-05T22:26:34.523Z,6.88
2023-03-05T22:29:02.465Z,7.05
2023-03-05T22:31:30.343Z,6.35
2023-03-05T22:33:57.634Z,6.38
2023-03-05T22:36:24.711Z,8.30
2023-03-05T22:38:52.571Z,6.97
2023-03-05T22:41:21.591Z,7.95
2023-03-05T22:43:50.668Z,6.55
2023-03-05T22:46:25.273Z,8.55
2023-03-05T22:48:53.183Z,10.40
2023-03-05T22:51:20.619Z,10.70
2023-03-05T22:53:47.553Z,8.88
2023-03-05T22:56:18.236Z,10.70
2023-03-05T22:58:45.625Z,11.05
2023-03-05T23:01:19.518Z,11.43
2023-03-05T23:04:18.452Z,10.50
2023-03-05T23:07:03.774Z,10.43
2023-03-05T23:09:30.957Z,10.32
2023-03-05T23:11:57.942Z,12.45
2023-03-05T23:14:24.887Z,9.45
2023-03-05T23:16:51.784Z,12.63
2023-03-05T23:19:19.030Z,10.93
2023-03-05T23:21:46.034Z,14.55
2023-03-05T23:24:12.971Z,12.93
2023-03-05T23:26:40.111Z,8.88
2023-03-05T23:29:07.140Z,11.50
2023-03-05T23:31:34.219Z,10.30
2023-03-05T23:34:01.287Z,12.20
2023-03-05T23:36:28.501Z,10.75
2023-03-05T23:38:58.132Z,12.63
2023-03-05T23:41:25.186Z,10.70
2023-03-05T23:43:52.135Z,13.35
2023-03-05T23:46:19.078Z,8.77
2023-03-05T23:48:46.169Z,10.10
2023-03-05T23:51:13.220Z,13.43
2023-03-05T23:53:40.244Z,10.38
2023-03-05T23:56:11.323Z,9.63
2023-03-05T23:58:38.840Z,12.32
